Aeroporto :
LOGIN :

Iscrizione | Disclaimer

   EN    FR    IT 

 










Sommario :    VFR   VFR Marginale   IFR   IFR Intensivo   IFR Molto Intensivo
Visibilità : 
Base nubi : 
>= 8 km
>= 3000ft
5 / 8 km
1000 / 3000 ft
1500m / 5 km
500 / 1000 ft
800 / 1500m
200 / 500 ft
< 800m
< 200 ft
Simboli :   Temporali  Nebbia  Neve Forte  Precipitazioni Forti  Vento > 20 kt
SIGMETs :   Varie  Temporali  Ghiacco  Turbolenza  Onda orograficha  Ceneri Vulcaniche






- Altitudine del aeroporto : 121 ft
- Codice IATA : HUY


EGNJ - Humberside

ULTIMO METAR :
  • 210350Z AUTO 02011KT 9999 FEW006/// BKN010/// OVC017/// 11/10 Q1018

METARs OBSOLETI :
  • 210320Z AUTO 01012KT 9999 BKN010/// OVC015/// 11/10 Q1018
  • 210250Z AUTO 02013KT 9999 SCT009/// BKN013/// BKN018/// 11/10 Q1018
  • 210220Z AUTO 01012KT 9999 BKN009/// OVC018/// 11/10 Q1018
  • 210150Z AUTO 01012KT 9999 BKN010/// OVC023/// 11/10 Q1018

TAF TAF EGNJ
Valido dal 21 a 03 ore il 21 a 12 ore UTC


210155Z 2103/2112 01012KT 9999 SCT025
TEMPO 2103/2106 7000 -RA BKN010
PROB30
TEMPO 2103/2106 4000 RADZ BKN004
ATIS : +44 1652 682 020



MetMap, La meteo Aeronautica in un colpo d'occhio ! - Copyright ORBIFLY Dicembre 2007 - Disclaimer

ORBIFLY MET'MAP TEAM :

Programmazione e sviluppo : Alexandra Zaïnal
Concezione e sviluppo : Baudouin d'Aumeries
Co-Programmazione e sviluppo : Marc-Olivier Méhu
Supporto tecnico e logistico : Manuel Goepfert
Aiuto per la traduzione : Arnaldo La Scala

Contatto : metmap@orbifly.com




FONTI E CREDITI :

   NOAA